createdAt,value
2023-03-29T00:01:52.872Z,3.15
2023-03-29T00:03:55.644Z,3.20
2023-03-29T00:06:02.864Z,4.40
2023-03-29T00:08:05.607Z,3.28
2023-03-29T00:10:10.620Z,6.05
2023-03-29T00:12:14.516Z,4.65
2023-03-29T00:14:17.073Z,5.25
2023-03-29T00:16:20.235Z,5.20
2023-03-29T00:18:22.992Z,5.25
2023-03-29T00:20:25.665Z,3.53
2023-03-29T00:22:28.260Z,2.88
2023-03-29T00:24:30.908Z,4.70
2023-03-29T00:26:33.512Z,6.35
2023-03-29T00:28:37.423Z,3.65
2023-03-29T00:30:40.002Z,4.13
2023-03-29T00:32:42.751Z,3.22
2023-03-29T00:34:45.791Z,5.95
2023-03-29T00:36:50.843Z,4.55
2023-03-29T00:38:53.431Z,2.88
2023-03-29T00:40:56.295Z,5.63
2023-03-29T00:43:00.404Z,7.72
2023-03-29T00:45:17.351Z,4.30
2023-03-29T00:47:25.848Z,3.67
2023-03-29T00:49:29.359Z,12.43
2023-03-29T00:51:35.239Z,7.30
2023-03-29T00:53:43.344Z,5.32
2023-03-29T00:55:52.637Z,4.30
2023-03-29T00:57:57.642Z,5.03
2023-03-29T01:00:04.366Z,5.55
2023-03-29T01:02:08.587Z,4.00
2023-03-29T01:04:18.500Z,4.38
2023-03-29T01:06:24.807Z,6.57
2023-03-29T01:08:30.602Z,4.45
2023-03-29T01:10:38.888Z,3.20
2023-03-29T01:12:46.991Z,4.93
2023-03-29T01:14:53.223Z,2.97
2023-03-29T01:16:55.990Z,2.92
2023-03-29T01:19:02.202Z,4.50
2023-03-29T01:21:15.436Z,6.05
2023-03-29T01:23:34.006Z,4.47
2023-03-29T01:25:44.646Z,4.93
2023-03-29T01:27:55.416Z,5.05
2023-03-29T01:30:04.153Z,4.70
2023-03-29T01:32:12.429Z,4.07
2023-03-29T01:34:21.895Z,5.00
2023-03-29T01:36:30.757Z,6.97
2023-03-29T01:38:39.458Z,3.58
2023-03-29T01:40:42.264Z,4.90
2023-03-29T01:42:49.503Z,5.85
2023-03-29T01:44:59.990Z,4.00
2023-03-29T01:47:11.348Z,5.57
2023-03-29T01:49:22.353Z,3.60
2023-03-29T01:51:29.746Z,4.17
2023-03-29T01:53:37.743Z,4.18
2023-03-29T01:55:44.083Z,3.53
2023-03-29T01:57:48.298Z,4.35
2023-03-29T01:59:55.472Z,4.45
2023-03-29T02:02:01.618Z,7.40
2023-03-29T02:04:09.138Z,6.78
2023-03-29T02:06:14.139Z,5.93
2023-03-29T02:08:18.547Z,5.05
2023-03-29T02:10:22.651Z,4.43
2023-03-29T02:12:25.256Z,7.75
2023-03-29T02:14:29.400Z,5.15
2023-03-29T02:16:37.506Z,5.03
2023-03-29T02:18:41.202Z,4.70
2023-03-29T02:20:47.281Z,5.80
2023-03-29T02:22:57.730Z,5.72
2023-03-29T02:25:04.774Z,3.70
2023-03-29T02:27:07.600Z,4.35
2023-03-29T02:29:10.403Z,8.27
2023-03-29T02:31:17.261Z,6.28
2023-03-29T02:33:25.680Z,6.22
2023-03-29T02:35:34.943Z,6.75
2023-03-29T02:37:41.010Z,6.18
2023-03-29T02:39:43.831Z,4.75
2023-03-29T02:41:49.579Z,6.60
2023-03-29T02:43:53.608Z,5.47
2023-03-29T02:45:57.014Z,6.05
2023-03-29T02:48:03.115Z,5.90
2023-03-29T02:50:08.526Z,3.38
2023-03-29T02:52:15.363Z,3.83
2023-03-29T02:54:20.672Z,2.85
2023-03-29T02:56:23.223Z,4.05
2023-03-29T02:58:26.529Z,2.55
2023-03-29T03:00:29.148Z,5.10
2023-03-29T03:02:31.744Z,4.20
2023-03-29T03:04:35.493Z,4.18
2023-03-29T03:06:40.057Z,3.85
2023-03-29T03:08:42.619Z,2.55
2023-03-29T03:10:45.761Z,3.83
2023-03-29T03:12:50.041Z,4.97
2023-03-29T03:14:52.961Z,2.20
2023-03-29T03:16:55.570Z,4.13
2023-03-29T03:18:58.444Z,7.13
2023-03-29T03:21:02.378Z,10.95
2023-03-29T03:23:08.960Z,6.55
2023-03-29T03:25:12.092Z,14.07
2023-03-29T03:27:14.640Z,17.63
2023-03-29T03:29:17.277Z,18.05
2023-03-29T03:31:21.469Z,16.65
2023-03-29T03:33:24.821Z,12.82
2023-03-29T03:35:27.401Z,6.35
2023-03-29T03:37:30.170Z,4.22
2023-03-29T03:39:34.122Z,4.07
2023-03-29T03:41:36.735Z,5.82
2023-03-29T03:43:41.459Z,4.07
2023-03-29T03:45:44.120Z,7.65
2023-03-29T03:47:49.452Z,8.15
2023-03-29T03:49:52.562Z,8.68
2023-03-29T03:51:55.182Z,8.00
2023-03-29T03:53:57.737Z,7.18
2023-03-29T03:56:02.187Z,6.55
2023-03-29T03:58:04.762Z,4.30
2023-03-29T04:00:19.240Z,3.85
2023-03-29T04:02:22.191Z,3.75
2023-03-29T04:04:25.494Z,8.05
2023-03-29T04:06:30.532Z,5.45
2023-03-29T04:08:33.211Z,3.90
2023-03-29T04:10:36.210Z,5.28
2023-03-29T04:12:40.691Z,4.80
2023-03-29T04:14:43.316Z,4.30
2023-03-29T04:16:46.386Z,4.28
2023-03-29T04:18:48.983Z,4.40
2023-03-29T04:20:52.023Z,7.53
2023-03-29T04:22:55.205Z,3.72
2023-03-29T04:24:57.771Z,5.90
2023-03-29T04:27:00.324Z,4.18
2023-03-29T04:29:04.700Z,5.40
2023-03-29T04:31:11.587Z,4.78
2023-03-29T04:33:14.206Z,6.25
2023-03-29T04:35:17.841Z,5.05
2023-03-29T04:37:22.306Z,4.85
2023-03-29T04:39:31.868Z,4.88
2023-03-29T04:41:34.805Z,11.68
2023-03-29T04:43:40.123Z,5.28
2023-03-29T04:45:44.727Z,4.40
2023-03-29T04:47:47.386Z,4.47
2023-03-29T04:49:50.021Z,11.27
2023-03-29T04:51:53.217Z,5.78
2023-03-29T04:53:55.854Z,6.57
2023-03-29T04:55:59.470Z,8.43
2023-03-29T04:58:02.776Z,6.03
2023-03-29T05:00:14.284Z,4.60
2023-03-29T05:02:18.220Z,9.15
2023-03-29T05:04:20.845Z,11.50
2023-03-29T05:06:23.607Z,12.32
2023-03-29T05:08:26.150Z,7.65
2023-03-29T05:10:28.708Z,7.97
2023-03-29T05:12:31.303Z,6.75
2023-03-29T05:14:33.868Z,9.20
2023-03-29T05:16:39.268Z,11.65
2023-03-29T05:18:43.234Z,4.80
2023-03-29T05:20:45.828Z,11.65
2023-03-29T05:22:48.660Z,5.57
2023-03-29T05:24:52.825Z,5.72
2023-03-29T05:26:56.118Z,5.18
2023-03-29T05:28:58.812Z,4.45
2023-03-29T05:31:02.246Z,7.95
2023-03-29T05:33:05.651Z,8.32
2023-03-29T05:35:11.296Z,9.15
2023-03-29T05:37:13.977Z,6.63
2023-03-29T05:39:16.604Z,9.07
2023-03-29T05:41:19.186Z,8.00
2023-03-29T05:43:21.807Z,10.70
2023-03-29T05:45:24.721Z,9.60
2023-03-29T05:47:27.903Z,14.25
2023-03-29T05:49:31.010Z,11.88
2023-03-29T05:51:35.325Z,10.40
2023-03-29T05:53:38.269Z,8.65
2023-03-29T05:55:40.874Z,9.63
2023-03-29T05:57:43.474Z,14.88
2023-03-29T05:59:46.887Z,9.50
2023-03-29T06:01:49.472Z,18.00
2023-03-29T06:03:52.553Z,12.10
2023-03-29T06:06:00.423Z,13.02
2023-03-29T06:08:04.504Z,9.30
2023-03-29T06:10:09.643Z,12.10
2023-03-29T06:12:12.241Z,8.13
2023-03-29T06:14:14.882Z,8.65
2023-03-29T06:16:17.460Z,7.88
2023-03-29T06:18:20.150Z,15.90
2023-03-29T06:20:22.697Z,14.32
2023-03-29T06:22:25.273Z,9.18
2023-03-29T06:24:29.206Z,8.18
2023-03-29T06:26:31.740Z,16.52
2023-03-29T06:28:34.478Z,6.75
2023-03-29T06:30:37.072Z,10.18
2023-03-29T06:32:39.908Z,2.97
2023-03-29T06:34:42.798Z,9.77
2023-03-29T06:36:45.850Z,5.68
2023-03-29T06:38:48.415Z,6.72
2023-03-29T06:40:52.719Z,7.10
2023-03-29T06:42:57.844Z,9.98
2023-03-29T06:45:00.460Z,4.05
2023-03-29T06:47:03.798Z,8.60
2023-03-29T06:49:06.405Z,3.83
2023-03-29T06:51:09.178Z,5.95
2023-03-29T06:53:11.762Z,6.90
2023-03-29T06:55:15.858Z,5.85
2023-03-29T06:57:19.797Z,7.88
2023-03-29T06:59:22.381Z,9.40
2023-03-29T07:01:24.968Z,5.90
2023-03-29T07:03:27.908Z,7.60
2023-03-29T07:05:31.647Z,7.80
2023-03-29T07:07:53.460Z,7.70
2023-03-29T07:09:56.017Z,9.35
2023-03-29T07:11:59.363Z,5.65
2023-03-29T07:14:03.911Z,5.15
2023-03-29T07:16:07.857Z,4.40
2023-03-29T07:18:11.075Z,3.17
2023-03-29T07:20:14.891Z,7.57
2023-03-29T07:22:17.446Z,5.00
2023-03-29T07:24:20.321Z,3.50
2023-03-29T07:26:28.623Z,7.38
2023-03-29T07:28:32.305Z,5.90
2023-03-29T07:30:37.169Z,6.72
2023-03-29T07:32:40.335Z,10.25
2023-03-29T07:34:42.941Z,3.83
2023-03-29T07:36:45.520Z,5.60
2023-03-29T07:38:48.690Z,2.63
2023-03-29T07:40:51.544Z,5.55
2023-03-29T07:42:58.619Z,5.32
2023-03-29T07:45:01.409Z,4.63
2023-03-29T07:47:05.520Z,4.32
2023-03-29T07:49:08.641Z,4.78
2023-03-29T07:51:11.816Z,7.00
2023-03-29T07:53:14.458Z,4.38
2023-03-29T07:55:17.219Z,5.15
2023-03-29T07:57:19.805Z,7.18
2023-03-29T07:59:22.624Z,8.32
2023-03-29T08:01:25.640Z,5.82
2023-03-29T08:03:29.647Z,6.28
2023-03-29T08:05:40.654Z,4.38
2023-03-29T08:07:46.187Z,8.40
2023-03-29T08:09:48.770Z,4.03
2023-03-29T08:11:51.882Z,2.72
2023-03-29T08:13:54.786Z,4.07
2023-03-29T08:15:57.359Z,4.63
2023-03-29T08:17:59.992Z,3.20
2023-03-29T08:20:04.257Z,3.15
2023-03-29T08:22:06.902Z,10.85
2023-03-29T08:24:09.597Z,10.10
2023-03-29T08:26:12.407Z,4.10
2023-03-29T08:28:14.975Z,7.40
2023-03-29T08:30:17.552Z,4.03
2023-03-29T08:32:20.420Z,4.53
2023-03-29T08:34:23.024Z,4.05
2023-03-29T08:36:27.620Z,11.27
2023-03-29T08:38:30.249Z,3.55
2023-03-29T08:40:32.894Z,3.95
2023-03-29T08:42:55.222Z,3.05
2023-03-29T08:45:07.923Z,7.72
2023-03-29T08:47:20.192Z,3.90
2023-03-29T08:49:23.534Z,4.60
2023-03-29T08:51:31.594Z,5.50
2023-03-29T08:53:40.137Z,5.10
2023-03-29T08:55:45.282Z,4.40
2023-03-29T08:57:51.613Z,7.13
2023-03-29T08:59:58.310Z,11.38
2023-03-29T09:02:03.323Z,5.63
2023-03-29T09:04:10.569Z,9.63
2023-03-29T09:06:14.569Z,5.55
2023-03-29T09:08:20.445Z,3.03
2023-03-29T09:10:31.477Z,10.07
2023-03-29T09:12:46.631Z,6.03
2023-03-29T09:14:58.596Z,8.07
2023-03-29T09:17:06.974Z,5.88
2023-03-29T09:19:20.904Z,8.50
2023-03-29T09:21:31.168Z,4.78
2023-03-29T09:23:52.658Z,6.40
2023-03-29T09:26:04.616Z,7.10
2023-03-29T09:30:21.377Z,5.93
2023-03-29T09:32:30.265Z,12.07
2023-03-29T09:34:39.726Z,7.70
2023-03-29T09:36:52.385Z,7.28
2023-03-29T09:38:56.917Z,6.88
2023-03-29T09:41:06.750Z,5.47
2023-03-29T09:43:13.286Z,4.15
2023-03-29T09:45:15.985Z,7.30
2023-03-29T09:47:24.806Z,4.43
2023-03-29T09:49:32.295Z,6.78
2023-03-29T09:51:35.654Z,9.63
2023-03-29T09:53:38.443Z,6.47
2023-03-29T09:55:47.801Z,6.55
2023-03-29T09:57:52.412Z,4.88
2023-03-29T09:59:55.951Z,11.55
2023-03-29T10:02:08.462Z,8.23
2023-03-29T10:04:12.151Z,3.55
2023-03-29T10:06:15.566Z,5.88
2023-03-29T10:08:22.320Z,4.10
2023-03-29T10:10:29.613Z,4.13
2023-03-29T10:12:35.963Z,9.73
2023-03-29T10:14:44.619Z,3.78
2023-03-29T10:16:48.145Z,5.70
2023-03-29T10:18:51.217Z,7.75
2023-03-29T10:21:00.191Z,5.88
2023-03-29T10:23:02.981Z,5.32
2023-03-29T10:25:14.442Z,6.88
2023-03-29T10:27:23.224Z,8.13
2023-03-29T10:29:28.235Z,2.97
2023-03-29T10:31:32.985Z,5.72
2023-03-29T10:33:37.447Z,5.55
2023-03-29T10:35:42.787Z,3.08
2023-03-29T10:37:50.441Z,4.28
2023-03-29T10:39:55.414Z,5.72
2023-03-29T10:42:00.295Z,4.97
2023-03-29T10:44:03.571Z,8.05
2023-03-29T10:46:13.275Z,6.95
2023-03-29T10:48:17.912Z,5.22
2023-03-29T10:50:20.703Z,5.13
2023-03-29T10:52:23.586Z,5.60
2023-03-29T10:54:33.980Z,2.38
2023-03-29T10:56:41.997Z,3.75
2023-03-29T10:59:05.085Z,6.18
2023-03-29T11:01:17.815Z,5.43
2023-03-29T11:03:35.257Z,4.32
2023-03-29T11:05:45.210Z,5.50
2023-03-29T11:08:02.301Z,3.92
2023-03-29T11:10:28.393Z,4.53
2023-03-29T11:12:40.554Z,3.72
2023-03-29T11:14:53.783Z,4.60
2023-03-29T11:17:09.412Z,8.40
2023-03-29T11:19:44.328Z,1.60
2023-03-29T11:21:57.045Z,3.92
2023-03-29T11:24:15.772Z,7.00
2023-03-29T11:26:23.826Z,6.18
2023-03-29T11:28:35.343Z,2.70
2023-03-29T11:30:44.961Z,6.28
2023-03-29T11:32:57.836Z,3.35
2023-03-29T11:35:08.965Z,7.15
2023-03-29T11:37:20.312Z,2.15
2023-03-29T11:39:31.358Z,2.95
2023-03-29T11:41:38.852Z,5.60
2023-03-29T11:43:45.674Z,4.60
2023-03-29T11:45:54.835Z,4.95
2023-03-29T11:48:03.034Z,3.47
2023-03-29T11:50:15.463Z,2.95
2023-03-29T11:52:22.457Z,5.13
2023-03-29T11:54:31.842Z,10.30
2023-03-29T11:56:40.805Z,4.80
2023-03-29T11:58:49.868Z,7.05
2023-03-29T12:00:57.920Z,4.65
2023-03-29T12:03:07.584Z,3.10
2023-03-29T12:05:16.906Z,7.25
2023-03-29T12:07:25.163Z,8.73
2023-03-29T12:09:34.188Z,3.33
2023-03-29T12:11:41.477Z,7.00
2023-03-29T12:13:48.656Z,4.07
2023-03-29T12:15:57.908Z,4.35
2023-03-29T12:18:08.339Z,2.47
2023-03-29T12:20:16.765Z,3.97
2023-03-29T12:22:19.430Z,3.92
2023-03-29T12:24:22.665Z,3.95
2023-03-29T12:26:43.035Z,2.30
2023-03-29T12:29:07.107Z,4.65
2023-03-29T12:31:18.212Z,5.93
2023-03-29T12:34:02.683Z,8.05
2023-03-29T12:36:20.419Z,3.22
2023-03-29T12:38:24.801Z,5.25
2023-03-29T12:40:29.362Z,4.20
2023-03-29T12:42:31.928Z,4.20
2023-03-29T12:44:34.845Z,3.70
2023-03-29T12:46:37.560Z,3.70
2023-03-29T12:48:42.338Z,5.53
2023-03-29T12:50:50.024Z,4.75
2023-03-29T12:52:54.047Z,6.05
2023-03-29T12:54:58.944Z,4.47
2023-03-29T12:57:03.882Z,4.00
2023-03-29T12:59:17.148Z,5.65
2023-03-29T13:01:32.547Z,6.40
2023-03-29T13:03:48.265Z,5.82
2023-03-29T13:06:01.101Z,6.00
2023-03-29T13:08:27.395Z,6.35
2023-03-29T13:10:37.210Z,4.00
2023-03-29T13:12:42.198Z,2.40
2023-03-29T13:14:47.370Z,7.63
2023-03-29T13:16:50.243Z,6.45
2023-03-29T13:19:03.606Z,4.95
2023-03-29T13:21:17.267Z,3.08
2023-03-29T13:23:34.318Z,6.00
2023-03-29T13:25:50.277Z,4.20
2023-03-29T13:27:58.689Z,7.07
2023-03-29T13:30:27.150Z,5.53
2023-03-29T13:32:47.062Z,3.50
2023-03-29T13:34:58.584Z,4.55
2023-03-29T13:37:14.083Z,2.67
2023-03-29T13:39:24.274Z,2.92
2023-03-29T13:41:32.472Z,2.97
2023-03-29T13:43:52.776Z,6.75
2023-03-29T13:46:21.045Z,3.28
2023-03-29T13:48:28.340Z,7.88
2023-03-29T13:50:37.403Z,9.27
2023-03-29T13:52:44.894Z,3.65
2023-03-29T13:54:58.393Z,7.45
2023-03-29T13:57:06.736Z,6.10
2023-03-29T13:59:15.435Z,5.13
2023-03-29T14:01:24.386Z,6.57
2023-03-29T14:03:30.068Z,15.20
2023-03-29T14:05:34.866Z,4.55
2023-03-29T14:07:40.746Z,7.05
2023-03-29T14:09:47.033Z,3.20
2023-03-29T14:11:52.056Z,11.35
2023-03-29T14:13:56.394Z,8.43
2023-03-29T14:16:04.239Z,5.25
2023-03-29T14:18:10.971Z,4.03
2023-03-29T14:20:16.009Z,2.75
2023-03-29T14:22:21.793Z,5.32
2023-03-29T14:24:28.069Z,5.05
2023-03-29T14:26:33.086Z,4.05
2023-03-29T14:28:37.984Z,6.00
2023-03-29T14:30:46.921Z,4.57
2023-03-29T14:32:51.173Z,9.73
2023-03-29T14:34:53.861Z,6.68
2023-03-29T14:36:56.564Z,4.85
2023-03-29T14:39:03.335Z,4.15
2023-03-29T14:41:07.567Z,5.43
2023-03-29T14:43:11.131Z,7.82
2023-03-29T14:45:18.438Z,4.85
2023-03-29T14:47:27.276Z,4.63
2023-03-29T14:49:30.669Z,3.58
2023-03-29T14:51:34.316Z,4.88
2023-03-29T14:53:38.005Z,3.90
2023-03-29T14:55:41.707Z,5.30
2023-03-29T14:57:44.335Z,4.40
2023-03-29T14:59:55.316Z,2.83
2023-03-29T15:01:59.332Z,5.18
2023-03-29T15:04:06.171Z,5.05
2023-03-29T15:06:08.828Z,10.10
2023-03-29T15:08:16.525Z,5.07
2023-03-29T15:10:20.749Z,3.33
2023-03-29T15:12:23.469Z,5.97
2023-03-29T15:14:29.158Z,9.20
2023-03-29T15:16:32.815Z,5.82
2023-03-29T15:18:39.977Z,4.47
2023-03-29T15:20:44.787Z,4.43
2023-03-29T15:22:56.832Z,7.70
2023-03-29T15:24:59.919Z,11.07
2023-03-29T15:27:05.483Z,5.25
2023-03-29T15:29:13.373Z,8.80
2023-03-29T15:31:18.951Z,8.32
2023-03-29T15:33:24.804Z,5.28
2023-03-29T15:35:28.847Z,7.93
2023-03-29T15:37:32.336Z,5.47
2023-03-29T15:39:34.947Z,5.10
2023-03-29T15:41:37.515Z,6.13
2023-03-29T15:43:41.213Z,5.93
2023-03-29T15:45:44.936Z,5.05
2023-03-29T15:47:49.398Z,4.32
2023-03-29T15:49:52.143Z,6.65
2023-03-29T15:51:56.027Z,7.70
2023-03-29T15:53:58.600Z,7.10
2023-03-29T15:56:04.547Z,5.55
2023-03-29T15:58:07.331Z,6.78
2023-03-29T16:00:14.729Z,6.07
2023-03-29T16:02:20.218Z,5.40
2023-03-29T16:04:23.801Z,6.10
2023-03-29T16:06:26.605Z,13.68
2023-03-29T16:08:30.693Z,5.38
2023-03-29T16:10:33.374Z,5.43
2023-03-29T16:12:38.368Z,5.03
2023-03-29T16:14:43.011Z,4.43
2023-03-29T16:16:45.907Z,6.88
2023-03-29T16:18:48.630Z,11.25
2023-03-29T16:20:51.735Z,9.35
2023-03-29T16:22:55.179Z,5.03
2023-03-29T16:24:59.408Z,9.52
2023-03-29T16:27:02.937Z,7.55
2023-03-29T16:29:05.556Z,6.90
2023-03-29T16:31:10.398Z,6.93
2023-03-29T16:33:13.045Z,8.07
2023-03-29T16:35:22.650Z,8.52
2023-03-29T16:37:25.555Z,5.57
2023-03-29T16:39:28.139Z,9.00
2023-03-29T16:41:33.016Z,10.10
2023-03-29T16:43:38.532Z,9.43
2023-03-29T16:45:41.277Z,5.43
2023-03-29T16:47:44.647Z,5.18
2023-03-29T16:49:48.610Z,5.75
2023-03-29T16:51:51.458Z,7.60
2023-03-29T16:53:54.102Z,14.63
2023-03-29T16:55:57.374Z,11.18
2023-03-29T16:58:01.566Z,10.45
2023-03-29T17:00:06.777Z,10.70
2023-03-29T17:02:12.999Z,7.75
2023-03-29T17:04:15.635Z,11.63
2023-03-29T17:06:18.209Z,9.95
2023-03-29T17:08:22.091Z,13.35
2023-03-29T17:10:25.429Z,12.18
2023-03-29T17:12:28.017Z,10.10
2023-03-29T17:14:31.897Z,14.30
2023-03-29T17:16:34.554Z,14.43
2023-03-29T17:18:37.674Z,12.70
2023-03-29T17:20:40.546Z,13.30
2023-03-29T17:22:43.139Z,17.13
2023-03-29T17:24:45.716Z,13.25
2023-03-29T17:26:48.257Z,16.73
2023-03-29T17:28:51.229Z,19.27
2023-03-29T17:30:55.188Z,14.73
2023-03-29T17:32:58.269Z,14.48
2023-03-29T17:35:00.946Z,18.40
2023-03-29T17:37:03.651Z,13.45
2023-03-29T17:39:06.950Z,14.05
2023-03-29T17:41:09.926Z,15.05
2023-03-29T17:43:12.545Z,13.27
2023-03-29T17:45:16.184Z,13.25
2023-03-29T17:47:20.108Z,16.13
2023-03-29T17:49:22.709Z,15.55
2023-03-29T17:51:25.761Z,16.63
2023-03-29T17:53:28.420Z,13.60
2023-03-29T17:55:30.984Z,15.27
2023-03-29T17:57:33.534Z,13.02
2023-03-29T17:59:36.950Z,12.07
2023-03-29T18:01:39.662Z,11.25
2023-03-29T18:03:43.796Z,12.73
2023-03-29T18:05:46.415Z,18.65
2023-03-29T18:07:48.960Z,15.10
2023-03-29T18:09:53.195Z,16.90
2023-03-29T18:11:55.733Z,13.45
2023-03-29T18:14:00.687Z,19.77
2023-03-29T18:16:04.429Z,22.40
2023-03-29T18:18:07.281Z,19.92
2023-03-29T18:20:12.721Z,18.05
2023-03-29T18:22:15.378Z,17.55
2023-03-29T18:24:17.997Z,18.52
2023-03-29T18:26:22.140Z,18.98
2023-03-29T18:28:25.175Z,17.40
2023-03-29T18:30:27.742Z,18.83
2023-03-29T18:32:30.436Z,23.58
2023-03-29T18:34:33.396Z,14.55
2023-03-29T18:36:37.491Z,23.10
2023-03-29T18:38:40.421Z,20.00
2023-03-29T18:40:43.155Z,25.70
2023-03-29T18:42:45.721Z,18.45
2023-03-29T18:44:48.525Z,22.88
2023-03-29T18:46:51.324Z,23.45
2023-03-29T18:48:54.404Z,15.25
2023-03-29T18:50:57.399Z,20.30
2023-03-29T18:53:01.511Z,20.83
2023-03-29T18:55:04.445Z,18.52
2023-03-29T18:57:07.091Z,21.67
2023-03-29T18:59:09.880Z,20.23
2023-03-29T19:01:13.855Z,19.85
2023-03-29T19:03:16.605Z,17.45
2023-03-29T19:05:19.417Z,17.95
2023-03-29T19:07:22.564Z,20.13
2023-03-29T19:09:27.293Z,23.58
2023-03-29T19:11:30.553Z,15.18
2023-03-29T19:13:33.185Z,22.20
2023-03-29T19:15:35.854Z,17.23
2023-03-29T19:17:38.449Z,14.75
2023-03-29T19:19:41.286Z,16.02
2023-03-29T19:21:43.827Z,15.35
2023-03-29T19:23:46.425Z,17.52
2023-03-29T19:25:54.353Z,15.38
2023-03-29T19:27:57.523Z,10.88
2023-03-29T19:30:00.543Z,18.35
2023-03-29T19:32:03.498Z,16.88
2023-03-29T19:34:06.542Z,12.48
2023-03-29T19:36:10.182Z,19.10
2023-03-29T19:38:13.271Z,16.20
2023-03-29T19:40:16.052Z,11.15
2023-03-29T19:42:19.962Z,19.15
2023-03-29T19:44:24.140Z,15.50
2023-03-29T19:46:28.232Z,12.65
2023-03-29T19:48:30.866Z,13.50
2023-03-29T19:50:33.460Z,14.57
2023-03-29T19:52:36.059Z,16.65
2023-03-29T19:54:38.741Z,14.60
2023-03-29T19:56:42.669Z,12.93
2023-03-29T19:58:46.795Z,14.05
2023-03-29T20:00:50.633Z,16.30
2023-03-29T20:02:55.590Z,13.30
2023-03-29T20:04:58.287Z,16.25
2023-03-29T20:07:00.967Z,11.90
2023-03-29T20:09:05.076Z,19.00
2023-03-29T20:11:10.043Z,14.32
2023-03-29T20:13:13.613Z,18.35
2023-03-29T20:15:19.090Z,14.90
2023-03-29T20:17:22.177Z,11.95
2023-03-29T20:19:25.346Z,20.45
2023-03-29T20:21:28.430Z,17.27
2023-03-29T20:23:31.513Z,17.50
2023-03-29T20:25:36.216Z,15.30
2023-03-29T20:27:41.107Z,16.23
2023-03-29T20:29:43.684Z,12.77
2023-03-29T20:31:48.328Z,25.48
2023-03-29T20:33:53.700Z,16.65
2023-03-29T20:35:58.519Z,18.73
2023-03-29T20:38:01.144Z,25.35
2023-03-29T20:40:05.713Z,21.20
2023-03-29T20:42:08.277Z,12.52
2023-03-29T20:44:12.526Z,20.13
2023-03-29T20:46:18.267Z,15.57
2023-03-29T20:48:23.192Z,17.83
2023-03-29T20:50:29.572Z,18.52
2023-03-29T20:52:35.994Z,15.30
2023-03-29T20:54:39.659Z,14.40
2023-03-29T20:56:44.342Z,19.85
2023-03-29T20:58:46.989Z,15.00
2023-03-29T21:00:50.272Z,16.33
2023-03-29T21:02:55.047Z,15.35
2023-03-29T21:05:00.237Z,19.40
2023-03-29T21:07:04.991Z,22.17
2023-03-29T21:09:07.634Z,18.60
2023-03-29T21:11:13.010Z,25.25
2023-03-29T21:13:15.755Z,14.27
2023-03-29T21:15:19.789Z,17.30
2023-03-29T21:17:22.630Z,19.08
2023-03-29T21:19:25.247Z,11.93
2023-03-29T21:21:29.947Z,22.85
2023-03-29T21:23:33.025Z,10.52
2023-03-29T21:25:35.684Z,21.02
2023-03-29T21:27:38.754Z,15.63
2023-03-29T21:29:41.332Z,24.83
2023-03-29T21:31:43.929Z,15.70
2023-03-29T21:33:46.517Z,19.80
2023-03-29T21:35:49.270Z,20.20
2023-03-29T21:37:53.571Z,20.27
2023-03-29T21:39:59.149Z,15.45
2023-03-29T21:42:01.707Z,11.77
2023-03-29T21:44:04.538Z,19.17
2023-03-29T21:46:07.908Z,16.52
2023-03-29T21:48:10.629Z,14.00
2023-03-29T21:50:13.312Z,14.70
2023-03-29T21:52:15.879Z,21.33
2023-03-29T21:54:19.820Z,16.30
2023-03-29T21:56:23.070Z,20.40
2023-03-29T21:58:25.853Z,20.77
2023-03-29T22:00:28.703Z,15.93
2023-03-29T22:02:31.644Z,19.98
2023-03-29T22:04:37.184Z,15.13
2023-03-29T22:06:40.087Z,14.40
2023-03-29T22:08:42.694Z,15.90
2023-03-29T22:10:46.538Z,12.80
2023-03-29T22:12:49.676Z,15.50
2023-03-29T22:14:52.227Z,13.75
2023-03-29T22:16:54.841Z,12.23
2023-03-29T22:18:57.958Z,20.50
2023-03-29T22:21:00.527Z,15.65
2023-03-29T22:23:03.311Z,16.88
2023-03-29T22:25:06.866Z,14.35
2023-03-29T22:27:11.046Z,13.48
2023-03-29T22:29:13.678Z,13.73
2023-03-29T22:31:18.469Z,22.45
2023-03-29T22:33:21.036Z,18.75
2023-03-29T22:35:23.595Z,12.82
2023-03-29T22:37:26.167Z,19.35
2023-03-29T22:39:29.765Z,16.27
2023-03-29T22:41:32.405Z,14.73
2023-03-29T22:43:36.507Z,19.35
2023-03-29T22:45:39.170Z,14.75
2023-03-29T22:47:41.775Z,18.02
2023-03-29T22:49:44.334Z,16.98
2023-03-29T22:51:46.956Z,22.00
2023-03-29T22:53:49.779Z,11.77
2023-03-29T22:55:52.729Z,13.35
2023-03-29T22:57:55.436Z,11.32
2023-03-29T22:59:59.374Z,15.43
2023-03-29T23:02:01.953Z,18.77
2023-03-29T23:04:04.854Z,16.10
2023-03-29T23:06:08.026Z,24.70
2023-03-29T23:08:10.567Z,13.23
2023-03-29T23:10:13.597Z,15.25
2023-03-29T23:12:16.194Z,24.17
2023-03-29T23:14:18.941Z,14.40
2023-03-29T23:16:23.113Z,17.55
2023-03-29T23:18:27.728Z,12.60
2023-03-29T23:20:30.552Z,22.88
2023-03-29T23:22:33.896Z,19.23
2023-03-29T23:24:36.462Z,19.73
2023-03-29T23:26:39.038Z,22.23
2023-03-29T23:28:42.214Z,10.68
2023-03-29T23:30:45.180Z,15.50
2023-03-29T23:32:49.421Z,14.43
2023-03-29T23:34:51.996Z,15.52
2023-03-29T23:36:54.544Z,15.55
2023-03-29T23:38:58.681Z,18.08
2023-03-29T23:41:03.686Z,21.48
2023-03-29T23:43:06.422Z,14.48
2023-03-29T23:45:12.648Z,16.77
2023-03-29T23:47:15.643Z,16.50
2023-03-29T23:49:22.713Z,20.90
2023-03-29T23:51:28.823Z,14.25
2023-03-29T23:53:32.248Z,16.27
2023-03-29T23:55:34.767Z,18.35
2023-03-29T23:57:37.303Z,22.58
2023-03-29T23:59:40.019Z,14.48
